Time;durP1;ratioP1;P1;durP2;ratioP2;P2;SDS_P1;SDS_P2;PMS_P1;PMS_P2;Temp;Humidity;BMP_temperature;BMP_pressure;BME280_temperature;BME280_humidity;BME280_pressure;Samples;Min_cycle;Max_cycle;Signal;HPM_P1;HPM_P2
2022/12/04 11:43:05;;;;;;;16.00;6.07;;;2.60;99.90;;;;;;4897975;23;20238;-72
2022/12/04 11:45:32;;;;;;;13.17;6.53;;;2.50;99.90;;;;;;4901458;29;20213;-72
2022/12/04 11:48:01;;;;;;;11.60;5.37;;;2.60;99.90;;;;;;4901428;29;20661;-72
2022/12/04 11:50:39;;;;;;;15.33;5.40;;;2.60;99.90;;;;;;4901593;29;20293;-72
2022/12/04 11:53:14;;;;;;;11.40;4.43;;;2.60;99.90;;;;;;4901784;29;20214;-73
2022/12/04 11:55:52;;;;;;;11.63;5.57;;;2.60;99.90;;;;;;4901490;29;20229;-72
2022/12/04 11:58:47;;;;;;;7.83;4.73;;;2.70;99.90;;;;;;4901533;29;20221;-72
2022/12/04 12:01:27;;;;;;;18.43;5.83;;;2.70;99.90;;;;;;4901200;29;20305;-72
2022/12/04 12:04:07;;;;;;;16.33;6.57;;;2.50;99.90;;;;;;4901181;29;20210;-72
2022/12/04 12:06:37;;;;;;;6.90;3.63;;;2.50;99.90;;;;;;4901136;29;20678;-72
2022/12/04 12:09:22;;;;;;;15.97;6.10;;;2.50;99.90;;;;;;4901047;29;20236;-72
2022/12/04 12:11:56;;;;;;;14.97;6.30;;;2.50;99.90;;;;;;4901344;29;20206;-72
2022/12/04 12:14:32;;;;;;;16.37;7.17;;;2.70;99.90;;;;;;4900973;29;20210;-72
2022/12/04 12:17:11;;;;;;;14.43;6.30;;;2.80;99.90;;;;;;4896915;29;20237;-73
2022/12/04 12:19:57;;;;;;;13.53;6.27;;;2.80;99.90;;;;;;4895255;29;20234;-73
2022/12/04 12:22:41;;;;;;;14.33;6.37;;;2.80;99.90;;;;;;4888722;29;20217;-73
2022/12/04 12:25:18;;;;;;;11.93;5.70;;;2.80;99.90;;;;;;4882139;29;20296;-73
2022/12/04 12:28:01;;;;;;;13.13;4.93;;;2.70;99.90;;;;;;4881649;29;20222;-72
2022/12/04 12:30:40;;;;;;;9.50;4.93;;;2.70;99.90;;;;;;4882053;29;20605;-73
2022/12/04 12:33:14;;;;;;;11.80;5.50;;;2.70;99.90;;;;;;4881463;29;20716;-70
2022/12/04 12:35:49;;;;;;;12.20;6.07;;;2.80;99.90;;;;;;4894251;29;20233;-70
2022/12/04 12:38:21;;;;;;;18.10;7.37;;;2.80;99.90;;;;;;4881319;29;20708;-72
2022/12/04 12:40:53;;;;;;;12.63;5.80;;;2.80;99.90;;;;;;4881363;29;20231;-68
2022/12/04 12:43:24;;;;;;;12.13;5.07;;;3.00;99.90;;;;;;4881655;29;20227;-72
2022/12/04 12:45:58;;;;;;;18.53;7.83;;;3.00;99.90;;;;;;4881439;29;20219;-72
2022/12/04 12:48:28;;;;;;;16.00;6.70;;;3.00;99.90;;;;;;4882850;29;20582;-72
2022/12/04 12:51:03;;;;;;;13.80;6.20;;;3.10;99.90;;;;;;4881689;29;20231;-71
2022/12/04 12:53:37;;;;;;;15.50;5.87;;;3.00;99.90;;;;;;4881909;29;20297;-72
2022/12/04 12:56:06;;;;;;;11.80;4.90;;;2.90;99.90;;;;;;4881273;29;20266;-72
2022/12/04 12:58:37;;;;;;;12.13;5.50;;;2.90;99.90;;;;;;4880644;29;20213;-71
2022/12/04 13:01:12;;;;;;;12.87;5.00;;;2.90;99.90;;;;;;4881089;29;20213;-72
2022/12/04 13:03:46;;;;;;;10.80;5.07;;;2.70;99.90;;;;;;4881729;29;20303;-72
2022/12/04 13:06:18;;;;;;;14.60;6.10;;;2.80;99.90;;;;;;4887846;29;20205;-71
2022/12/04 13:08:55;;;;;;;16.07;6.63;;;2.80;99.90;;;;;;4884425;29;20203;-72
2022/12/04 13:11:24;;;;;;;9.40;4.53;;;2.90;99.90;;;;;;4881132;29;20275;-70
2022/12/04 13:13:53;;;;;;;9.80;5.13;;;2.80;99.90;;;;;;4897952;29;20535;-73
2022/12/04 13:16:25;;;;;;;15.07;5.80;;;2.70;99.90;;;;;;4887404;29;20709;-70
2022/12/04 13:19:00;;;;;;;10.63;5.40;;;2.70;99.90;;;;;;4880870;29;20322;-72
2022/12/04 13:21:33;;;;;;;12.27;4.83;;;2.70;99.90;;;;;;4880963;29;20293;-72
2022/12/04 13:24:26;;;;;;;7.37;4.70;;;2.60;99.90;;;;;;4880891;29;20215;-72
2022/12/04 13:26:57;;;;;;;9.40;5.00;;;2.60;99.90;;;;;;4880813;29;20219;-71
2022/12/04 13:29:51;;;;;;;9.03;4.90;;;2.70;99.90;;;;;;4880929;29;20231;-71
2022/12/04 13:32:49;;;;;;;10.80;5.27;;;2.70;99.90;;;;;;4880743;29;20218;-73
2022/12/04 13:35:24;;;;;;;10.73;5.37;;;2.80;99.90;;;;;;4860866;29;20217;-71
2022/12/04 13:38:15;;;;;;;10.70;5.23;;;2.90;99.90;;;;;;4880355;29;20222;-71
2022/12/04 13:40:46;;;;;;;8.33;4.63;;;2.80;99.90;;;;;;4880397;29;20234;-73
2022/12/04 13:43:24;;;;;;;10.10;4.90;;;2.60;99.90;;;;;;4879964;29;20662;-72
2022/12/04 13:45:54;;;;;;;11.60;5.30;;;2.60;99.90;;;;;;4880611;29;20225;-69
2022/12/04 13:48:36;;;;;;;11.87;5.27;;;2.60;99.90;;;;;;4880932;29;20572;-70
2022/12/04 13:51:20;;;;;;;9.13;4.50;;;2.70;99.90;;;;;;4891406;29;20215;-70
2022/12/04 13:53:47;;;;;;;9.07;4.73;;;2.70;99.90;;;;;;4880335;29;20222;-70
2022/12/04 13:56:26;;;;;;;11.67;5.60;;;2.60;99.90;;;;;;4880371;29;20285;-69
2022/12/04 13:59:00;;;;;;;12.07;5.97;;;2.50;99.90;;;;;;4880079;29;20250;-70
2022/12/04 14:01:31;;;;;;;10.77;4.97;;;2.60;99.90;;;;;;4879943;29;20214;-69
2022/12/04 14:03:59;;;;;;;12.07;5.50;;;2.60;99.90;;;;;;4880192;29;20211;-69
2022/12/04 14:06:32;;;;;;;8.30;4.50;;;2.50;99.90;;;;;;4880342;29;20235;-69
2022/12/04 14:09:03;;;;;;;8.90;4.77;;;2.50;99.90;;;;;;4880499;29;20231;-69
2022/12/04 14:11:41;;;;;;;9.40;4.67;;;2.60;99.90;;;;;;4879554;29;20215;-69
2022/12/04 14:14:24;;;;;;;12.90;5.07;;;2.70;99.90;;;;;;4879321;29;20611;-69
2022/12/04 14:16:51;;;;;;;14.47;5.13;;;2.50;99.90;;;;;;4879052;29;20242;-69
2022/12/04 14:19:32;;;;;;;14.73;5.37;;;2.50;99.90;;;;;;4879982;29;20239;-69
2022/12/04 14:22:00;;;;;;;7.90;4.57;;;2.50;99.90;;;;;;4879845;29;20218;-69
2022/12/04 14:24:34;;;;;;;12.10;5.00;;;2.50;99.90;;;;;;4879737;29;20207;-69
2022/12/04 14:27:03;;;;;;;11.77;5.57;;;2.50;99.90;;;;;;4879870;29;20562;-69
2022/12/04 14:29:47;;;;;;;10.50;4.77;;;2.40;99.90;;;;;;4879702;29;20658;-69
2022/12/04 14:32:16;;;;;;;12.17;5.87;;;2.40;99.90;;;;;;4879874;29;20207;-69
2022/12/04 14:34:46;;;;;;;11.50;5.83;;;2.30;99.90;;;;;;4879754;29;20674;-69
2022/12/04 14:37:21;;;;;;;11.43;5.37;;;2.30;99.90;;;;;;4879905;29;20249;-69
2022/12/04 14:39:50;;;;;;;15.23;6.83;;;2.40;99.90;;;;;;4879955;29;20233;-69
2022/12/04 14:42:22;;;;;;;12.80;5.33;;;2.60;99.90;;;;;;4879710;29;20208;-70
2022/12/04 14:44:54;;;;;;;10.53;5.20;;;2.40;99.90;;;;;;4880517;29;20678;-69
2022/12/04 14:47:31;;;;;;;12.00;5.33;;;2.30;99.90;;;;;;4880086;29;20258;-69
2022/12/04 14:50:13;;;;;;;12.50;6.47;;;2.30;99.90;;;;;;4880152;29;20227;-69
2022/12/04 14:52:45;;;;;;;12.43;5.73;;;2.50;99.90;;;;;;4879875;29;20213;-69
2022/12/04 14:55:22;;;;;;;12.57;6.13;;;2.50;99.90;;;;;;4879986;29;20562;-69
2022/12/04 14:57:54;;;;;;;10.60;5.23;;;2.40;99.90;;;;;;4879383;29;20238;-69
2022/12/04 15:00:23;;;;;;;13.23;6.10;;;2.40;99.90;;;;;;4879909;29;20238;-69
2022/12/04 15:02:54;;;;;;;10.83;5.73;;;2.30;99.90;;;;;;4879839;29;20211;-69
2022/12/04 15:05:26;;;;;;;15.10;6.30;;;2.30;99.90;;;;;;4879785;29;20210;-69
2022/12/04 15:07:57;;;;;;;11.90;6.17;;;2.30;99.90;;;;;;4879608;29;20214;-69
2022/12/04 15:13:10;;;;;;;11.43;5.90;;;2.40;99.90;;;;;;4879554;29;20214;-69
2022/12/04 15:15:37;;;;;;;13.20;6.43;;;2.50;99.90;;;;;;4879452;29;20231;-69
2022/12/04 15:18:11;;;;;;;12.83;6.43;;;2.50;99.90;;;;;;4878851;29;20242;-69
2022/12/04 15:20:45;;;;;;;12.10;6.00;;;2.40;99.90;;;;;;4879368;29;20235;-69
2022/12/04 15:23:14;;;;;;;15.40;6.60;;;2.40;99.90;;;;;;4879429;29;20297;-70
2022/12/04 15:25:45;;;;;;;17.03;6.50;;;2.40;99.90;;;;;;4879397;29;20233;-69
2022/12/04 15:28:17;;;;;;;16.70;7.60;;;2.40;99.90;;;;;;4878956;29;20581;-70
2022/12/04 15:30:45;;;;;;;13.30;6.13;;;2.60;99.90;;;;;;4878998;29;20235;-69
2022/12/04 15:33:16;;;;;;;12.23;5.83;;;2.70;99.90;;;;;;4879163;29;20225;-69
2022/12/04 15:35:47;;;;;;;14.90;6.07;;;2.70;99.90;;;;;;4879619;29;20225;-69
2022/12/04 15:38:15;;;;;;;12.50;6.40;;;2.50;99.90;;;;;;4879211;29;20243;-69
2022/12/04 15:40:50;;;;;;;13.27;5.70;;;2.30;99.90;;;;;;4879008;29;20242;-69
2022/12/04 15:43:22;;;;;;;10.57;5.60;;;2.20;99.90;;;;;;4878943;29;20270;-69
2022/12/04 15:45:49;;;;;;;9.73;4.93;;;2.20;99.90;;;;;;4879030;29;20301;-69
2022/12/04 15:48:24;;;;;;;10.97;6.20;;;2.20;99.90;;;;;;4879243;29;20215;-69
2022/12/04 15:51:01;;;;;;;17.53;6.50;;;2.30;99.90;;;;;;4879068;29;20233;-69
2022/12/04 15:53:31;;;;;;;9.77;5.77;;;2.20;99.90;;;;;;4879060;29;20297;-69
2022/12/04 15:56:02;;;;;;;11.50;5.87;;;2.30;99.90;;;;;;4879028;29;20218;-69
2022/12/04 15:58:31;;;;;;;11.67;5.67;;;2.30;99.90;;;;;;4878907;29;20642;-69
2022/12/04 16:01:00;;;;;;;14.27;6.83;;;2.40;99.90;;;;;;4879021;29;20214;-69
2022/12/04 16:03:30;;;;;;;13.23;6.73;;;2.30;99.90;;;;;;4878946;29;20272;-69
2022/12/04 16:06:15;;;;;;;13.30;6.73;;;2.40;99.90;;;;;;4878885;29;20682;-69
2022/12/04 16:08:44;;;;;;;16.43;6.70;;;2.40;99.90;;;;;;4878856;29;20215;-69
2022/12/04 16:11:30;;;;;;;13.87;6.63;;;2.30;99.90;;;;;;4879002;29;20598;-69
2022/12/04 16:14:15;;;;;;;11.27;6.40;;;2.40;99.90;;;;;;4878929;29;20269;-69
2022/12/04 16:16:44;;;;;;;17.17;7.30;;;2.30;99.90;;;;;;4878634;29;20257;-69
2022/12/04 16:19:16;;;;;;;11.70;6.27;;;2.40;99.90;;;;;;4878402;29;20322;-69
2022/12/04 16:21:45;;;;;;;13.13;6.67;;;2.40;99.90;;;;;;4878772;29;20217;-69
2022/12/04 16:24:13;;;;;;;13.20;7.10;;;2.30;99.90;;;;;;4878846;29;20571;-69
2022/12/04 16:26:40;;;;;;;15.03;6.90;;;2.20;99.90;;;;;;4878789;29;20706;-69
2022/12/04 16:29:07;;;;;;;15.10;6.43;;;2.30;99.90;;;;;;4878787;29;20235;-69
2022/12/04 16:31:34;;;;;;;11.97;5.80;;;2.30;99.90;;;;;;4881890;29;20674;-69
2022/12/04 16:34:01;;;;;;;12.00;6.17;;;2.30;99.90;;;;;;4882092;29;20698;-69
2022/12/04 16:36:28;;;;;;;11.20;6.47;;;2.30;99.90;;;;;;4882162;29;20211;-69
2022/12/04 16:38:56;;;;;;;12.73;6.33;;;2.30;99.90;;;;;;4882174;29;20227;-69
2022/12/04 16:41:23;;;;;;;14.70;6.53;;;2.40;99.90;;;;;;4881940;29;20606;-69
2022/12/04 16:43:54;;;;;;;14.63;6.33;;;2.40;99.90;;;;;;4881324;29;20755;-69
2022/12/04 16:46:23;;;;;;;11.43;5.43;;;2.30;99.90;;;;;;4882040;29;20234;-69
2022/12/04 16:48:50;;;;;;;12.63;6.60;;;2.20;99.90;;;;;;4881986;29;20207;-69
2022/12/04 16:51:19;;;;;;;11.43;5.70;;;2.10;99.90;;;;;;4881657;29;20249;-69
2022/12/04 16:53:46;;;;;;;11.97;6.27;;;2.10;99.90;;;;;;4881285;29;20214;-69
2022/12/04 16:56:14;;;;;;;12.53;6.10;;;2.20;99.90;;;;;;4881640;29;20578;-69
2022/12/04 16:58:42;;;;;;;12.73;6.27;;;2.10;99.90;;;;;;4881297;29;20249;-69
2022/12/04 17:01:20;;;;;;;12.43;6.53;;;2.30;99.90;;;;;;4881798;29;20215;-69
2022/12/04 17:03:47;;;;;;;11.57;5.70;;;2.20;99.90;;;;;;4881574;29;20309;-69
2022/12/04 17:06:14;;;;;;;12.87;6.17;;;2.30;99.90;;;;;;4881413;29;20218;-69
2022/12/04 17:08:41;;;;;;;12.23;5.73;;;2.30;99.90;;;;;;4881584;29;20225;-69
2022/12/04 17:11:09;;;;;;;12.97;5.90;;;2.30;99.90;;;;;;4881431;29;20215;-69
2022/12/04 17:13:37;;;;;;;11.23;6.00;;;2.20;99.90;;;;;;4880927;29;20211;-69
2022/12/04 17:16:04;;;;;;;12.80;6.23;;;2.10;99.90;;;;;;4881203;29;20207;-69
2022/12/04 17:18:31;;;;;;;12.30;5.83;;;2.00;99.90;;;;;;4880863;29;20239;-69
2022/12/04 17:20:58;;;;;;;14.67;6.40;;;2.00;99.90;;;;;;4881262;29;20210;-69
2022/12/04 17:23:26;;;;;;;13.10;5.57;;;2.00;99.90;;;;;;4881102;29;20235;-69
2022/12/04 17:25:53;;;;;;;11.80;5.47;;;2.00;99.90;;;;;;4881316;29;20207;-69
2022/12/04 17:28:20;;;;;;;10.13;5.67;;;2.20;99.90;;;;;;4880910;29;20227;-69
2022/12/04 17:30:48;;;;;;;12.33;6.07;;;2.10;99.90;;;;;;4881059;29;20239;-69
2022/12/04 17:33:15;;;;;;;12.00;6.67;;;2.10;99.90;;;;;;4880926;29;20211;-69
2022/12/04 17:35:43;;;;;;;13.03;6.43;;;2.00;99.90;;;;;;4881375;29;20480;-69
2022/12/04 17:38:10;;;;;;;16.00;7.10;;;2.10;99.90;;;;;;4880799;29;20296;-69
2022/12/04 17:40:37;;;;;;;13.90;5.87;;;2.20;99.90;;;;;;4880863;29;20239;-69
2022/12/04 17:43:03;;;;;;;17.13;7.10;;;2.20;99.90;;;;;;4888983;29;20226;-69
2022/12/04 17:45:30;;;;;;;16.13;7.93;;;2.20;99.90;;;;;;4880224;29;20215;-69
2022/12/04 17:47:59;;;;;;;13.57;6.97;;;2.20;99.90;;;;;;4882465;29;20222;-69
2022/12/04 17:50:26;;;;;;;14.67;6.77;;;2.30;99.90;;;;;;4888241;29;20237;-69
2022/12/04 17:52:53;;;;;;;24.17;8.77;;;2.20;99.90;;;;;;4884202;29;20221;-69
2022/12/04 17:55:20;;;;;;;15.87;7.43;;;2.10;99.90;;;;;;4879707;29;20207;-68
2022/12/04 17:57:47;;;;;;;17.93;6.73;;;2.10;99.90;;;;;;4881997;29;20241;-68
2022/12/04 18:00:14;;;;;;;13.33;6.23;;;2.10;99.90;;;;;;4880023;29;20231;-68
2022/12/04 18:02:41;;;;;;;11.83;5.43;;;2.20;99.90;;;;;;4882317;29;20211;-69
2022/12/04 18:05:10;;;;;;;12.50;6.80;;;2.10;99.90;;;;;;4879856;29;20227;-69
2022/12/04 18:07:37;;;;;;;14.73;7.37;;;2.20;99.90;;;;;;4882822;29;20222;-69
2022/12/04 18:10:05;;;;;;;14.47;6.60;;;2.30;99.90;;;;;;4879340;29;20237;-68
2022/12/04 18:12:32;;;;;;;11.27;5.53;;;2.30;99.90;;;;;;4883429;29;20217;-68
2022/12/04 18:14:58;;;;;;;15.70;6.93;;;2.20;99.90;;;;;;4879658;29;20222;-68
2022/12/04 18:17:25;;;;;;;12.00;6.40;;;2.10;99.90;;;;;;4882054;29;20241;-69
2022/12/04 18:19:52;;;;;;;16.23;6.67;;;2.10;99.90;;;;;;4880171;29;20730;-69
2022/12/04 18:22:20;;;;;;;16.67;6.93;;;2.20;99.90;;;;;;4880861;29;20215;-69
2022/12/04 18:24:47;;;;;;;16.03;7.93;;;2.10;99.90;;;;;;4881655;29;20203;-69
2022/12/04 18:27:14;;;;;;;13.80;7.47;;;2.20;99.90;;;;;;4879499;29;20579;-69
2022/12/04 18:29:41;;;;;;;14.67;6.43;;;2.20;99.90;;;;;;4881228;29;20234;-69
2022/12/04 18:32:08;;;;;;;13.97;6.73;;;2.20;99.90;;;;;;4880803;29;20214;-69
2022/12/04 18:34:35;;;;;;;17.30;7.90;;;2.30;99.90;;;;;;4882223;29;20211;-69
2022/12/04 18:37:02;;;;;;;20.90;8.20;;;2.40;99.90;;;;;;4879373;29;20207;-70
2022/12/04 18:39:30;;;;;;;15.73;7.03;;;2.50;99.90;;;;;;4878832;29;20234;-69
2022/12/04 18:41:57;;;;;;;15.70;7.73;;;2.50;99.90;;;;;;4888218;29;20667;-69
2022/12/04 18:44:24;;;;;;;15.73;7.37;;;2.60;99.90;;;;;;4878746;29;20306;-69
2022/12/04 18:46:52;;;;;;;16.10;7.20;;;2.60;99.90;;;;;;4879170;29;20203;-69
2022/12/04 18:49:18;;;;;;;15.10;8.07;;;2.60;99.90;;;;;;4881239;29;20258;-69
2022/12/04 18:51:46;;;;;;;18.30;7.93;;;2.80;99.90;;;;;;4878435;29;20681;-69
2022/12/04 18:54:15;;;;;;;18.77;8.43;;;2.80;99.90;;;;;;4881070;29;20220;-69
2022/12/04 18:56:44;;;;;;;17.47;8.27;;;3.00;99.90;;;;;;4879240;29;20203;-69
2022/12/04 18:59:13;;;;;;;19.70;8.37;;;2.80;99.90;;;;;;4881061;29;20709;-69
2022/12/04 19:01:40;;;;;;;17.60;8.00;;;2.70;99.90;;;;;;4879268;29;20658;-70
2022/12/04 19:04:09;;;;;;;18.23;7.83;;;2.70;99.90;;;;;;4882535;29;20225;-69
2022/12/04 19:06:38;;;;;;;21.33;9.03;;;2.70;99.90;;;;;;4880284;29;20543;-69
2022/12/04 19:09:08;;;;;;;18.67;8.17;;;2.60;99.90;;;;;;4882138;29;20838;-69
2022/12/04 19:11:35;;;;;;;17.60;8.23;;;2.70;99.90;;;;;;4881146;29;20669;-70
2022/12/04 19:14:04;;;;;;;16.97;7.93;;;2.80;99.90;;;;;;4882054;29;20765;-70
2022/12/04 19:16:31;;;;;;;19.23;8.67;;;3.00;99.90;;;;;;4880348;29;20217;-70
2022/12/04 19:18:58;;;;;;;20.93;9.20;;;2.90;99.90;;;;;;4878413;29;20249;-70
2022/12/04 19:21:26;;;;;;;19.70;8.90;;;2.70;99.90;;;;;;4880534;29;20230;-69
2022/12/04 19:23:57;;;;;;;21.03;9.40;;;2.90;99.90;;;;;;4878737;29;20290;-69
2022/12/04 19:26:24;;;;;;;19.47;9.00;;;3.00;99.90;;;;;;4881156;29;20207;-69
2022/12/04 19:28:51;;;;;;;19.37;9.43;;;3.20;99.90;;;;;;4878075;29;20217;-69
2022/12/04 19:31:21;;;;;;;21.57;9.57;;;3.20;99.90;;;;;;4882485;29;20208;-69
2022/12/04 19:33:48;;;;;;;21.93;8.53;;;3.10;99.90;;;;;;4878852;29;20215;-69
2022/12/04 19:36:15;;;;;;;22.37;9.37;;;3.30;99.90;;;;;;4883595;29;20217;-69
2022/12/04 19:38:43;;;;;;;16.60;7.97;;;3.30;99.90;;;;;;4878213;29;20253;-69
2022/12/04 19:41:12;;;;;;;22.83;8.93;;;3.20;99.90;;;;;;4881686;29;20681;-70
2022/12/04 19:43:42;;;;;;;25.07;9.33;;;3.30;99.90;;;;;;4878296;29;20726;-69
2022/12/04 19:46:11;;;;;;;19.00;9.43;;;3.10;99.90;;;;;;4878314;29;20213;-69
2022/12/04 19:48:39;;;;;;;22.07;9.00;;;3.10;99.90;;;;;;4879872;29;20207;-69
2022/12/04 19:51:08;;;;;;;18.70;8.63;;;3.10;99.90;;;;;;4882106;29;20211;-69
2022/12/04 19:53:36;;;;;;;20.77;8.73;;;3.00;99.90;;;;;;4880087;29;20215;-69
2022/12/04 19:56:04;;;;;;;19.70;8.30;;;2.90;99.90;;;;;;4880894;29;20223;-69
2022/12/04 19:58:33;;;;;;;19.63;8.50;;;3.20;99.90;;;;;;4877978;29;20242;-70
2022/12/04 20:01:00;;;;;;;18.40;8.30;;;3.10;99.90;;;;;;4878033;29;20279;-69
2022/12/04 20:03:27;;;;;;;24.10;9.43;;;3.10;99.90;;;;;;4880851;29;20222;-69
2022/12/04 20:05:55;;;;;;;21.67;9.27;;;3.00;99.90;;;;;;4881744;29;20215;-69
2022/12/04 20:08:22;;;;;;;23.90;9.07;;;3.10;99.90;;;;;;4885181;29;20219;-69
2022/12/04 20:10:49;;;;;;;18.80;8.47;;;3.30;99.90;;;;;;4882962;29;20226;-69
2022/12/04 20:13:16;;;;;;;21.47;9.03;;;3.00;99.90;;;;;;4881019;29;20578;-70
2022/12/04 20:15:43;;;;;;;24.33;9.07;;;2.80;99.90;;;;;;4881188;29;20218;-69
2022/12/04 20:18:10;;;;;;;18.87;8.27;;;2.80;99.90;;;;;;4881602;29;20270;-70
2022/12/04 20:20:37;;;;;;;18.17;7.83;;;3.10;99.90;;;;;;4882014;29;20239;-71
2022/12/04 20:23:05;;;;;;;20.33;8.97;;;3.20;99.90;;;;;;4881673;29;20207;-70
2022/12/04 20:25:35;;;;;;;23.77;9.07;;;3.10;99.90;;;;;;4881655;29;20223;-70
2022/12/04 20:28:01;;;;;;;22.03;8.73;;;3.20;99.90;;;;;;4883556;29;20215;-70
2022/12/04 20:30:28;;;;;;;17.47;8.13;;;3.30;99.90;;;;;;4884822;29;20227;-69
2022/12/04 20:32:55;;;;;;;19.03;7.93;;;3.30;99.90;;;;;;4886029;29;20218;-68
2022/12/04 20:35:22;;;;;;;18.73;7.87;;;3.20;99.90;;;;;;4884158;29;20213;-68
2022/12/04 20:37:49;;;;;;;18.47;7.73;;;3.00;99.90;;;;;;4882778;29;20250;-70
2022/12/04 20:40:17;;;;;;;22.17;9.33;;;3.00;99.90;;;;;;4882321;29;20226;-69
2022/12/04 20:42:44;;;;;;;17.30;8.27;;;2.90;99.90;;;;;;4880626;29;20211;-70
2022/12/04 20:45:11;;;;;;;18.67;7.67;;;3.00;99.90;;;;;;4881360;29;20292;-68
2022/12/04 20:47:38;;;;;;;17.23;7.93;;;3.00;99.90;;;;;;4881160;29;20211;-69
2022/12/04 20:50:06;;;;;;;23.20;8.67;;;3.10;99.90;;;;;;4880395;29;20271;-68
2022/12/04 20:52:33;;;;;;;18.90;8.80;;;3.20;99.90;;;;;;4890260;29;20207;-69
2022/12/04 20:55:00;;;;;;;23.67;8.90;;;3.10;99.90;;;;;;4883767;29;20207;-69
2022/12/04 20:57:30;;;;;;;18.70;7.87;;;3.00;99.90;;;;;;4881404;29;20217;-69
2022/12/04 20:59:56;;;;;;;19.93;7.97;;;3.00;99.90;;;;;;4880973;29;20659;-70
2022/12/04 21:02:23;;;;;;;15.60;7.80;;;2.80;99.90;;;;;;4880906;29;20631;-70
2022/12/04 21:04:50;;;;;;;15.87;7.00;;;2.80;99.90;;;;;;4880869;29;20211;-70
2022/12/04 21:07:17;;;;;;;18.37;7.30;;;2.80;99.90;;;;;;4880792;29;20574;-70
2022/12/04 21:09:44;;;;;;;22.90;8.17;;;2.80;99.90;;;;;;4881035;29;20234;-70
2022/12/04 21:17:38;;;;;;;18.87;8.60;;;3.10;99.90;;;;;;4880489;29;20642;-69
2022/12/04 21:20:06;;;;;;;20.17;8.83;;;3.20;99.90;;;;;;4880489;29;20230;-70
2022/12/04 21:22:32;;;;;;;20.57;8.93;;;3.10;99.90;;;;;;4880454;29;20207;-70
2022/12/04 21:24:59;;;;;;;24.23;8.50;;;3.40;99.90;;;;;;4880517;29;20218;-70
2022/12/04 21:27:26;;;;;;;27.77;9.37;;;3.60;99.90;;;;;;4879731;29;20207;-70
2022/12/04 21:29:54;;;;;;;20.57;8.67;;;3.60;99.90;;;;;;4880414;29;20238;-70
2022/12/04 21:32:22;;;;;;;20.43;10.03;;;3.70;99.90;;;;;;4882620;29;20234;-70
2022/12/04 21:34:50;;;;;;;25.10;9.83;;;3.60;99.90;;;;;;4884018;29;20213;-70
2022/12/04 21:37:17;;;;;;;23.67;10.23;;;3.40;99.90;;;;;;4880270;29;20208;-70
2022/12/04 21:39:44;;;;;;;21.97;9.23;;;3.20;99.90;;;;;;4880023;29;20246;-70
2022/12/04 21:44:56;;;;;;;28.93;9.77;;;3.40;99.90;;;;;;4879852;29;20754;-70
2022/12/04 21:47:23;;;;;;;25.97;9.80;;;3.50;99.90;;;;;;4880176;29;20214;-69
2022/12/04 21:49:50;;;;;;;23.80;10.23;;;3.70;99.90;;;;;;4879659;29;20241;-69
2022/12/04 21:52:18;;;;;;;22.60;10.10;;;3.80;99.90;;;;;;4880264;29;20210;-69
2022/12/04 21:54:48;;;;;;;24.00;10.60;;;3.90;99.90;;;;;;4880596;29;20211;-68
2022/12/04 21:57:15;;;;;;;24.90;11.33;;;3.80;99.90;;;;;;4884135;29;20203;-69
2022/12/04 21:59:41;;;;;;;29.57;10.07;;;3.80;99.90;;;;;;4883477;29;20725;-69
2022/12/04 22:02:10;;;;;;;28.70;10.13;;;3.80;99.90;;;;;;4881661;29;20229;-68
2022/12/04 22:04:37;;;;;;;27.47;10.97;;;3.80;99.90;;;;;;4879054;29;20673;-69
2022/12/04 22:07:04;;;;;;;31.97;10.73;;;3.90;99.90;;;;;;4879906;29;20223;-69
